sensor_id;sensor_type;location;lat;lon;timestamp;P1;durP1;ratioP1;P2;durP2;ratioP2
64894;SDS011;51588;53.702;10.208;2023-07-13T00:01:11;3.20;;;2.10;;
64894;SDS011;51588;53.702;10.208;2023-07-13T00:03:37;1.87;;;1.70;;
64894;SDS011;51588;53.702;10.208;2023-07-13T00:06:06;3.60;;;2.00;;
64894;SDS011;51588;53.702;10.208;2023-07-13T00:08:34;2.23;;;2.03;;
64894;SDS011;51588;53.702;10.208;2023-07-13T00:11:01;2.70;;;1.80;;
64894;SDS011;51588;53.702;10.208;2023-07-13T00:13:28;2.47;;;1.60;;
64894;SDS011;51588;53.702;10.208;2023-07-13T00:15:56;1.90;;;1.70;;
64894;SDS011;51588;53.702;10.208;2023-07-13T00:18:22;2.90;;;2.03;;
64894;SDS011;51588;53.702;10.208;2023-07-13T00:20:49;3.13;;;2.03;;
64894;SDS011;51588;53.702;10.208;2023-07-13T00:23:16;2.87;;;2.13;;
64894;SDS011;51588;53.702;10.208;2023-07-13T00:25:45;2.53;;;2.23;;
64894;SDS011;51588;53.702;10.208;2023-07-13T00:28:11;2.27;;;1.90;;
64894;SDS011;51588;53.702;10.208;2023-07-13T00:30:38;2.60;;;1.97;;
64894;SDS011;51588;53.702;10.208;2023-07-13T00:33:04;2.93;;;1.73;;
64894;SDS011;51588;53.702;10.208;2023-07-13T00:35:31;2.63;;;2.10;;
64894;SDS011;51588;53.702;10.208;2023-07-13T00:37:57;2.17;;;1.80;;
64894;SDS011;51588;53.702;10.208;2023-07-13T00:40:24;3.40;;;2.00;;
64894;SDS011;51588;53.702;10.208;2023-07-13T00:42:52;3.83;;;2.10;;
64894;SDS011;51588;53.702;10.208;2023-07-13T00:48:04;3.50;;;2.00;;
64894;SDS011;51588;53.702;10.208;2023-07-13T00:50:31;2.30;;;2.10;;
64894;SDS011;51588;53.702;10.208;2023-07-13T00:52:57;2.30;;;2.10;;
64894;SDS011;51588;53.702;10.208;2023-07-13T00:55:24;1.93;;;1.70;;
64894;SDS011;51588;53.702;10.208;2023-07-13T00:57:50;2.43;;;2.23;;
64894;SDS011;51588;53.702;10.208;2023-07-13T01:00:18;2.27;;;1.73;;
64894;SDS011;51588;53.702;10.208;2023-07-13T01:02:46;2.37;;;2.17;;
64894;SDS011;51588;53.702;10.208;2023-07-13T01:05:15;3.07;;;2.10;;
64894;SDS011;51588;53.702;10.208;2023-07-13T01:07:41;2.47;;;1.90;;
64894;SDS011;51588;53.702;10.208;2023-07-13T01:10:09;2.60;;;1.97;;
64894;SDS011;51588;53.702;10.208;2023-07-13T01:12:35;2.20;;;1.80;;
64894;SDS011;51588;53.702;10.208;2023-07-13T01:15:02;2.07;;;1.87;;
64894;SDS011;51588;53.702;10.208;2023-07-13T01:17:31;6.47;;;2.23;;
64894;SDS011;51588;53.702;10.208;2023-07-13T01:19:59;2.80;;;1.77;;
64894;SDS011;51588;53.702;10.208;2023-07-13T01:22:27;2.27;;;1.80;;
64894;SDS011;51588;53.702;10.208;2023-07-13T01:24:54;2.40;;;1.90;;
64894;SDS011;51588;53.702;10.208;2023-07-13T01:27:21;1.90;;;1.80;;
64894;SDS011;51588;53.702;10.208;2023-07-13T01:29:50;2.80;;;1.93;;
64894;SDS011;51588;53.702;10.208;2023-07-13T01:32:18;2.10;;;1.77;;
64894;SDS011;51588;53.702;10.208;2023-07-13T01:34:48;2.03;;;1.63;;
64894;SDS011;51588;53.702;10.208;2023-07-13T01:37:15;2.27;;;1.80;;
64894;SDS011;51588;53.702;10.208;2023-07-13T01:39:42;2.30;;;2.00;;
64894;SDS011;51588;53.702;10.208;2023-07-13T01:42:09;1.90;;;1.60;;
64894;SDS011;51588;53.702;10.208;2023-07-13T01:44:35;2.87;;;1.83;;
64894;SDS011;51588;53.702;10.208;2023-07-13T01:47:02;2.30;;;1.80;;
64894;SDS011;51588;53.702;10.208;2023-07-13T01:49:28;2.93;;;2.03;;
64894;SDS011;51588;53.702;10.208;2023-07-13T01:51:55;2.60;;;1.90;;
64894;SDS011;51588;53.702;10.208;2023-07-13T01:54:21;2.00;;;1.80;;
64894;SDS011;51588;53.702;10.208;2023-07-13T01:56:49;1.80;;;1.70;;
64894;SDS011;51588;53.702;10.208;2023-07-13T01:59:16;2.30;;;1.93;;
64894;SDS011;51588;53.702;10.208;2023-07-13T02:01:42;2.13;;;1.90;;
64894;SDS011;51588;53.702;10.208;2023-07-13T02:04:08;2.03;;;1.90;;
64894;SDS011;51588;53.702;10.208;2023-07-13T02:06:35;2.93;;;1.60;;
64894;SDS011;51588;53.702;10.208;2023-07-13T02:09:02;2.40;;;2.13;;
64894;SDS011;51588;53.702;10.208;2023-07-13T02:11:29;2.80;;;1.90;;
64894;SDS011;51588;53.702;10.208;2023-07-13T02:13:59;2.17;;;1.80;;
64894;SDS011;51588;53.702;10.208;2023-07-13T02:16:25;3.00;;;1.63;;
64894;SDS011;51588;53.702;10.208;2023-07-13T02:18:52;2.00;;;1.80;;
64894;SDS011;51588;53.702;10.208;2023-07-13T02:21:20;1.93;;;1.83;;
64894;SDS011;51588;53.702;10.208;2023-07-13T02:23:46;1.80;;;1.60;;
64894;SDS011;51588;53.702;10.208;2023-07-13T02:26:13;2.00;;;1.80;;
64894;SDS011;51588;53.702;10.208;2023-07-13T02:28:39;3.33;;;1.83;;
64894;SDS011;51588;53.702;10.208;2023-07-13T02:31:08;3.30;;;1.83;;
64894;SDS011;51588;53.702;10.208;2023-07-13T02:33:35;2.53;;;1.83;;
64894;SDS011;51588;53.702;10.208;2023-07-13T02:36:02;1.93;;;1.70;;
64894;SDS011;51588;53.702;10.208;2023-07-13T02:38:30;2.33;;;1.83;;
64894;SDS011;51588;53.702;10.208;2023-07-13T02:40:58;1.97;;;1.60;;
64894;SDS011;51588;53.702;10.208;2023-07-13T02:43:25;1.70;;;1.60;;
64894;SDS011;51588;53.702;10.208;2023-07-13T02:45:51;2.70;;;1.70;;
64894;SDS011;51588;53.702;10.208;2023-07-13T02:48:19;1.70;;;1.60;;
64894;SDS011;51588;53.702;10.208;2023-07-13T02:50:45;1.70;;;1.60;;
64894;SDS011;51588;53.702;10.208;2023-07-13T02:53:12;2.33;;;1.70;;
64894;SDS011;51588;53.702;10.208;2023-07-13T02:55:38;1.87;;;1.67;;
64894;SDS011;51588;53.702;10.208;2023-07-13T02:58:05;2.20;;;1.60;;
64894;SDS011;51588;53.702;10.208;2023-07-13T03:00:32;1.83;;;1.50;;
64894;SDS011;51588;53.702;10.208;2023-07-13T03:02:59;2.20;;;1.73;;
64894;SDS011;51588;53.702;10.208;2023-07-13T03:05:27;2.07;;;1.87;;
64894;SDS011;51588;53.702;10.208;2023-07-13T03:07:53;1.87;;;1.70;;
64894;SDS011;51588;53.702;10.208;2023-07-13T03:10:20;1.70;;;1.60;;
64894;SDS011;51588;53.702;10.208;2023-07-13T03:12:46;2.10;;;1.97;;
64894;SDS011;51588;53.702;10.208;2023-07-13T03:15:12;1.73;;;1.63;;
64894;SDS011;51588;53.702;10.208;2023-07-13T03:17:39;1.63;;;1.50;;
64894;SDS011;51588;53.702;10.208;2023-07-13T03:20:06;1.67;;;1.57;;
64894;SDS011;51588;53.702;10.208;2023-07-13T03:22:34;3.70;;;1.70;;
64894;SDS011;51588;53.702;10.208;2023-07-13T03:25:00;1.60;;;1.50;;
64894;SDS011;51588;53.702;10.208;2023-07-13T03:27:27;1.90;;;1.70;;
64894;SDS011;51588;53.702;10.208;2023-07-13T03:29:53;2.00;;;1.90;;
64894;SDS011;51588;53.702;10.208;2023-07-13T03:32:20;1.73;;;1.57;;
64894;SDS011;51588;53.702;10.208;2023-07-13T03:34:46;1.50;;;1.40;;
64894;SDS011;51588;53.702;10.208;2023-07-13T03:37:13;2.10;;;1.90;;
64894;SDS011;51588;53.702;10.208;2023-07-13T03:39:40;1.80;;;1.70;;
64894;SDS011;51588;53.702;10.208;2023-07-13T03:42:07;2.00;;;1.90;;
64894;SDS011;51588;53.702;10.208;2023-07-13T03:44:34;2.67;;;2.10;;
64894;SDS011;51588;53.702;10.208;2023-07-13T03:47:01;5.40;;;2.00;;
64894;SDS011;51588;53.702;10.208;2023-07-13T03:49:27;1.90;;;1.80;;
64894;SDS011;51588;53.702;10.208;2023-07-13T03:51:54;1.77;;;1.67;;
64894;SDS011;51588;53.702;10.208;2023-07-13T03:54:20;1.90;;;1.80;;
64894;SDS011;51588;53.702;10.208;2023-07-13T03:56:48;2.37;;;2.10;;
64894;SDS011;51588;53.702;10.208;2023-07-13T03:59:14;2.13;;;1.93;;
64894;SDS011;51588;53.702;10.208;2023-07-13T04:01:42;2.63;;;1.60;;
64894;SDS011;51588;53.702;10.208;2023-07-13T04:04:09;2.87;;;2.30;;
64894;SDS011;51588;53.702;10.208;2023-07-13T04:06:36;1.90;;;1.70;;
64894;SDS011;51588;53.702;10.208;2023-07-13T04:09:03;2.30;;;2.20;;
64894;SDS011;51588;53.702;10.208;2023-07-13T04:11:31;2.43;;;1.80;;
64894;SDS011;51588;53.702;10.208;2023-07-13T04:13:59;2.83;;;2.00;;
64894;SDS011;51588;53.702;10.208;2023-07-13T04:16:26;2.00;;;1.90;;
64894;SDS011;51588;53.702;10.208;2023-07-13T04:18:52;1.90;;;1.80;;
64894;SDS011;51588;53.702;10.208;2023-07-13T04:21:20;2.20;;;2.00;;
64894;SDS011;51588;53.702;10.208;2023-07-13T04:23:46;2.10;;;1.90;;
64894;SDS011;51588;53.702;10.208;2023-07-13T04:26:13;2.13;;;1.90;;
64894;SDS011;51588;53.702;10.208;2023-07-13T04:28:39;2.30;;;1.77;;
64894;SDS011;51588;53.702;10.208;2023-07-13T04:31:07;2.33;;;1.83;;
64894;SDS011;51588;53.702;10.208;2023-07-13T04:33:33;2.10;;;1.70;;
64894;SDS011;51588;53.702;10.208;2023-07-13T04:36:00;2.20;;;2.00;;
64894;SDS011;51588;53.702;10.208;2023-07-13T04:38:27;1.97;;;1.80;;
64894;SDS011;51588;53.702;10.208;2023-07-13T04:40:54;2.30;;;1.90;;
64894;SDS011;51588;53.702;10.208;2023-07-13T04:43:21;1.80;;;1.70;;
64894;SDS011;51588;53.702;10.208;2023-07-13T04:45:47;2.40;;;1.90;;
64894;SDS011;51588;53.702;10.208;2023-07-13T04:48:15;3.03;;;1.90;;
64894;SDS011;51588;53.702;10.208;2023-07-13T04:50:41;2.67;;;2.43;;
64894;SDS011;51588;53.702;10.208;2023-07-13T04:53:08;1.90;;;1.80;;
64894;SDS011;51588;53.702;10.208;2023-07-13T04:55:35;1.97;;;1.80;;
64894;SDS011;51588;53.702;10.208;2023-07-13T04:58:01;2.27;;;1.70;;
64894;SDS011;51588;53.702;10.208;2023-07-13T05:00:28;2.20;;;1.90;;
64894;SDS011;51588;53.702;10.208;2023-07-13T05:02:55;1.70;;;1.60;;
64894;SDS011;51588;53.702;10.208;2023-07-13T05:05:23;2.20;;;2.00;;
64894;SDS011;51588;53.702;10.208;2023-07-13T05:07:50;2.00;;;1.80;;
64894;SDS011;51588;53.702;10.208;2023-07-13T05:10:16;2.00;;;1.80;;
64894;SDS011;51588;53.702;10.208;2023-07-13T05:12:43;2.03;;;1.93;;
64894;SDS011;51588;53.702;10.208;2023-07-13T05:15:09;2.13;;;1.90;;
64894;SDS011;51588;53.702;10.208;2023-07-13T05:17:36;2.20;;;2.00;;
64894;SDS011;51588;53.702;10.208;2023-07-13T05:20:04;2.93;;;1.90;;
64894;SDS011;51588;53.702;10.208;2023-07-13T05:22:32;1.90;;;1.80;;
64894;SDS011;51588;53.702;10.208;2023-07-13T05:25:00;1.70;;;1.60;;
64894;SDS011;51588;53.702;10.208;2023-07-13T05:27:26;1.80;;;1.70;;
64894;SDS011;51588;53.702;10.208;2023-07-13T05:29:52;2.07;;;1.97;;
64894;SDS011;51588;53.702;10.208;2023-07-13T05:32:19;2.07;;;1.87;;
64894;SDS011;51588;53.702;10.208;2023-07-13T05:34:45;2.20;;;2.00;;
64894;SDS011;51588;53.702;10.208;2023-07-13T05:37:12;2.30;;;2.10;;
64894;SDS011;51588;53.702;10.208;2023-07-13T05:39:39;3.10;;;1.83;;
64894;SDS011;51588;53.702;10.208;2023-07-13T05:42:06;2.17;;;1.97;;
64894;SDS011;51588;53.702;10.208;2023-07-13T05:44:32;2.00;;;1.90;;
64894;SDS011;51588;53.702;10.208;2023-07-13T05:46:59;1.77;;;1.67;;
64894;SDS011;51588;53.702;10.208;2023-07-13T05:49:25;4.60;;;2.10;;
64894;SDS011;51588;53.702;10.208;2023-07-13T05:51:52;3.10;;;1.90;;
64894;SDS011;51588;53.702;10.208;2023-07-13T05:54:18;7.13;;;2.50;;
64894;SDS011;51588;53.702;10.208;2023-07-13T05:56:46;19.87;;;5.03;;
64894;SDS011;51588;53.702;10.208;2023-07-13T05:59:12;148.30;;;23.53;;
64894;SDS011;51588;53.702;10.208;2023-07-13T06:01:39;118.03;;;19.70;;
64894;SDS011;51588;53.702;10.208;2023-07-13T06:04:05;99.53;;;18.70;;
64894;SDS011;51588;53.702;10.208;2023-07-13T06:06:32;97.60;;;14.33;;
64894;SDS011;51588;53.702;10.208;2023-07-13T06:08:58;66.90;;;12.67;;
64894;SDS011;51588;53.702;10.208;2023-07-13T06:11:25;57.03;;;11.90;;
64894;SDS011;51588;53.702;10.208;2023-07-13T06:13:54;58.17;;;10.90;;
64894;SDS011;51588;53.702;10.208;2023-07-13T06:16:20;36.57;;;7.57;;
64894;SDS011;51588;53.702;10.208;2023-07-13T06:18:46;37.37;;;7.67;;
64894;SDS011;51588;53.702;10.208;2023-07-13T06:21:14;36.83;;;7.37;;
64894;SDS011;51588;53.702;10.208;2023-07-13T06:23:40;29.57;;;7.43;;
64894;SDS011;51588;53.702;10.208;2023-07-13T06:26:07;37.33;;;9.00;;
64894;SDS011;51588;53.702;10.208;2023-07-13T06:28:33;42.80;;;8.87;;
64894;SDS011;51588;53.702;10.208;2023-07-13T06:31:01;30.10;;;8.23;;
64894;SDS011;51588;53.702;10.208;2023-07-13T06:33:28;25.03;;;6.70;;
64894;SDS011;51588;53.702;10.208;2023-07-13T06:35:54;19.47;;;5.57;;
64894;SDS011;51588;53.702;10.208;2023-07-13T06:38:20;21.07;;;5.13;;
64894;SDS011;51588;53.702;10.208;2023-07-13T06:40:47;19.73;;;6.20;;
64894;SDS011;51588;53.702;10.208;2023-07-13T06:43:13;14.47;;;4.40;;
64894;SDS011;51588;53.702;10.208;2023-07-13T06:45:40;14.33;;;4.40;;
64894;SDS011;51588;53.702;10.208;2023-07-13T06:48:08;10.47;;;4.00;;
64894;SDS011;51588;53.702;10.208;2023-07-13T06:50:34;9.13;;;3.43;;
64894;SDS011;51588;53.702;10.208;2023-07-13T06:53:01;14.50;;;3.70;;
64894;SDS011;51588;53.702;10.208;2023-07-13T06:55:27;13.40;;;3.87;;
64894;SDS011;51588;53.702;10.208;2023-07-13T06:57:54;12.57;;;3.70;;
64894;SDS011;51588;53.702;10.208;2023-07-13T07:00:20;9.17;;;3.53;;
64894;SDS011;51588;53.702;10.208;2023-07-13T07:02:47;12.13;;;3.53;;
64894;SDS011;51588;53.702;10.208;2023-07-13T07:05:14;14.43;;;4.00;;
64894;SDS011;51588;53.702;10.208;2023-07-13T07:07:41;14.93;;;4.30;;
64894;SDS011;51588;53.702;10.208;2023-07-13T07:10:08;8.77;;;3.00;;
64894;SDS011;51588;53.702;10.208;2023-07-13T07:12:34;7.73;;;3.00;;
64894;SDS011;51588;53.702;10.208;2023-07-13T07:15:00;10.73;;;3.67;;
64894;SDS011;51588;53.702;10.208;2023-07-13T07:17:27;5.70;;;2.73;;
64894;SDS011;51588;53.702;10.208;2023-07-13T07:19:53;13.33;;;2.73;;
64894;SDS011;51588;53.702;10.208;2023-07-13T07:22:21;8.77;;;3.10;;
64894;SDS011;51588;53.702;10.208;2023-07-13T07:24:47;6.30;;;2.97;;
64894;SDS011;51588;53.702;10.208;2023-07-13T07:27:14;7.73;;;3.00;;
64894;SDS011;51588;53.702;10.208;2023-07-13T07:29:40;8.10;;;2.90;;
64894;SDS011;51588;53.702;10.208;2023-07-13T07:32:07;7.27;;;2.87;;
64894;SDS011;51588;53.702;10.208;2023-07-13T07:34:33;7.80;;;2.70;;
64894;SDS011;51588;53.702;10.208;2023-07-13T07:37:00;6.83;;;2.60;;
64894;SDS011;51588;53.702;10.208;2023-07-13T07:39:28;12.77;;;2.60;;
64894;SDS011;51588;53.702;10.208;2023-07-13T07:41:54;6.00;;;2.13;;
64894;SDS011;51588;53.702;10.208;2023-07-13T07:44:22;4.87;;;2.10;;
64894;SDS011;51588;53.702;10.208;2023-07-13T07:46:49;11.60;;;2.83;;
64894;SDS011;51588;53.702;10.208;2023-07-13T07:49:15;10.83;;;2.70;;
64894;SDS011;51588;53.702;10.208;2023-07-13T07:51:47;4.63;;;2.40;;
64894;SDS011;51588;53.702;10.208;2023-07-13T07:54:14;12.00;;;3.10;;
64894;SDS011;51588;53.702;10.208;2023-07-13T07:56:42;10.63;;;2.83;;
64894;SDS011;51588;53.702;10.208;2023-07-13T07:59:11;7.30;;;2.40;;
64894;SDS011;51588;53.702;10.208;2023-07-13T08:01:38;7.97;;;2.37;;
64894;SDS011;51588;53.702;10.208;2023-07-13T08:04:04;6.73;;;2.57;;
64894;SDS011;51588;53.702;10.208;2023-07-13T08:06:31;9.33;;;2.60;;
64894;SDS011;51588;53.702;10.208;2023-07-13T08:08:58;5.07;;;2.20;;
64894;SDS011;51588;53.702;10.208;2023-07-13T08:11:25;11.07;;;2.20;;
64894;SDS011;51588;53.702;10.208;2023-07-13T08:13:53;10.60;;;2.60;;
64894;SDS011;51588;53.702;10.208;2023-07-13T08:16:19;5.83;;;2.10;;
64894;SDS011;51588;53.702;10.208;2023-07-13T08:18:45;3.93;;;1.90;;
64894;SDS011;51588;53.702;10.208;2023-07-13T08:21:12;5.90;;;2.40;;
64894;SDS011;51588;53.702;10.208;2023-07-13T08:23:38;5.73;;;2.37;;
64894;SDS011;51588;53.702;10.208;2023-07-13T08:26:05;4.03;;;2.13;;
64894;SDS011;51588;53.702;10.208;2023-07-13T08:28:31;3.33;;;2.10;;
64894;SDS011;51588;53.702;10.208;2023-07-13T08:31:01;4.17;;;2.10;;
64894;SDS011;51588;53.702;10.208;2023-07-13T08:33:28;5.30;;;2.33;;
64894;SDS011;51588;53.702;10.208;2023-07-13T08:35:54;4.47;;;2.30;;
64894;SDS011;51588;53.702;10.208;2023-07-13T08:38:22;3.20;;;2.00;;
64894;SDS011;51588;53.702;10.208;2023-07-13T08:40:49;8.00;;;2.47;;
64894;SDS011;51588;53.702;10.208;2023-07-13T08:43:16;3.80;;;2.10;;
64894;SDS011;51588;53.702;10.208;2023-07-13T08:45:45;2.73;;;1.77;;
64894;SDS011;51588;53.702;10.208;2023-07-13T08:48:15;5.13;;;2.03;;
64894;SDS011;51588;53.702;10.208;2023-07-13T08:50:46;4.00;;;2.23;;
64894;SDS011;51588;53.702;10.208;2023-07-13T08:53:14;3.37;;;1.97;;
64894;SDS011;51588;53.702;10.208;2023-07-13T08:55:41;5.80;;;2.03;;
64894;SDS011;51588;53.702;10.208;2023-07-13T08:58:09;5.33;;;2.20;;
64894;SDS011;51588;53.702;10.208;2023-07-13T09:00:38;7.43;;;1.90;;
64894;SDS011;51588;53.702;10.208;2023-07-13T09:03:12;4.83;;;2.03;;
64894;SDS011;51588;53.702;10.208;2023-07-13T09:05:44;6.57;;;2.17;;
64894;SDS011;51588;53.702;10.208;2023-07-13T09:08:17;7.33;;;2.23;;
64894;SDS011;51588;53.702;10.208;2023-07-13T09:10:49;5.73;;;2.10;;
64894;SDS011;51588;53.702;10.208;2023-07-13T09:13:19;4.97;;;2.00;;
64894;SDS011;51588;53.702;10.208;2023-07-13T09:15:48;3.23;;;1.80;;
64894;SDS011;51588;53.702;10.208;2023-07-13T09:18:16;5.17;;;2.00;;
64894;SDS011;51588;53.702;10.208;2023-07-13T09:20:48;7.00;;;2.10;;
64894;SDS011;51588;53.702;10.208;2023-07-13T09:23:15;6.80;;;1.97;;
64894;SDS011;51588;53.702;10.208;2023-07-13T09:25:43;7.07;;;2.10;;
64894;SDS011;51588;53.702;10.208;2023-07-13T09:28:12;6.70;;;2.00;;
64894;SDS011;51588;53.702;10.208;2023-07-13T09:30:43;5.50;;;2.30;;
64894;SDS011;51588;53.702;10.208;2023-07-13T09:33:11;8.17;;;2.10;;
64894;SDS011;51588;53.702;10.208;2023-07-13T09:35:37;5.83;;;2.23;;
64894;SDS011;51588;53.702;10.208;2023-07-13T09:38:10;7.13;;;2.10;;
64894;SDS011;51588;53.702;10.208;2023-07-13T09:40:40;6.63;;;2.83;;
64894;SDS011;51588;53.702;10.208;2023-07-13T09:43:10;5.53;;;2.20;;
64894;SDS011;51588;53.702;10.208;2023-07-13T09:45:37;2.53;;;1.80;;
64894;SDS011;51588;53.702;10.208;2023-07-13T09:48:05;6.50;;;2.13;;
64894;SDS011;51588;53.702;10.208;2023-07-13T09:50:33;4.60;;;2.20;;
64894;SDS011;51588;53.702;10.208;2023-07-13T09:53:00;6.40;;;2.30;;
64894;SDS011;51588;53.702;10.208;2023-07-13T09:55:28;5.77;;;2.07;;
64894;SDS011;51588;53.702;10.208;2023-07-13T09:57:55;6.37;;;2.37;;
64894;SDS011;51588;53.702;10.208;2023-07-13T10:00:23;10.33;;;2.37;;
64894;SDS011;51588;53.702;10.208;2023-07-13T10:02:58;4.43;;;2.00;;
64894;SDS011;51588;53.702;10.208;2023-07-13T10:05:24;4.20;;;2.20;;
64894;SDS011;51588;53.702;10.208;2023-07-13T10:07:51;3.70;;;2.00;;
64894;SDS011;51588;53.702;10.208;2023-07-13T10:10:18;4.20;;;1.90;;
64894;SDS011;51588;53.702;10.208;2023-07-13T10:12:47;5.07;;;2.20;;
64894;SDS011;51588;53.702;10.208;2023-07-13T10:15:14;9.80;;;2.40;;
64894;SDS011;51588;53.702;10.208;2023-07-13T10:17:41;10.57;;;2.37;;
64894;SDS011;51588;53.702;10.208;2023-07-13T10:20:09;9.67;;;2.60;;
64894;SDS011;51588;53.702;10.208;2023-07-13T10:22:39;6.30;;;2.53;;
64894;SDS011;51588;53.702;10.208;2023-07-13T10:25:13;4.70;;;2.37;;
64894;SDS011;51588;53.702;10.208;2023-07-13T10:27:41;3.47;;;1.93;;
64894;SDS011;51588;53.702;10.208;2023-07-13T10:30:11;5.37;;;2.53;;
64894;SDS011;51588;53.702;10.208;2023-07-13T10:32:38;6.00;;;2.47;;
64894;SDS011;51588;53.702;10.208;2023-07-13T10:35:05;5.27;;;2.60;;
64894;SDS011;51588;53.702;10.208;2023-07-13T10:37:38;12.77;;;2.60;;
64894;SDS011;51588;53.702;10.208;2023-07-13T10:40:06;5.77;;;2.50;;
64894;SDS011;51588;53.702;10.208;2023-07-13T10:42:39;5.43;;;2.50;;
64894;SDS011;51588;53.702;10.208;2023-07-13T10:45:12;5.30;;;2.20;;
64894;SDS011;51588;53.702;10.208;2023-07-13T10:47:39;4.70;;;2.57;;
64894;SDS011;51588;53.702;10.208;2023-07-13T10:50:08;4.13;;;2.00;;
64894;SDS011;51588;53.702;10.208;2023-07-13T10:52:42;14.07;;;2.70;;
64894;SDS011;51588;53.702;10.208;2023-07-13T10:57:51;6.20;;;2.50;;
64894;SDS011;51588;53.702;10.208;2023-07-13T11:00:19;5.70;;;2.60;;
64894;SDS011;51588;53.702;10.208;2023-07-13T11:02:55;6.90;;;3.10;;
64894;SDS011;51588;53.702;10.208;2023-07-13T11:05:25;6.80;;;2.50;;
64894;SDS011;51588;53.702;10.208;2023-07-13T11:07:53;10.27;;;3.30;;
64894;SDS011;51588;53.702;10.208;2023-07-13T11:13:02;5.73;;;2.97;;
64894;SDS011;51588;53.702;10.208;2023-07-13T11:15:44;5.77;;;2.60;;
64894;SDS011;51588;53.702;10.208;2023-07-13T11:18:21;4.33;;;2.53;;
64894;SDS011;51588;53.702;10.208;2023-07-13T11:20:47;5.20;;;2.40;;
64894;SDS011;51588;53.702;10.208;2023-07-13T11:25:58;6.33;;;2.50;;
64894;SDS011;51588;53.702;10.208;2023-07-13T11:28:26;8.40;;;2.40;;
64894;SDS011;51588;53.702;10.208;2023-07-13T11:31:01;4.53;;;2.00;;
64894;SDS011;51588;53.702;10.208;2023-07-13T11:33:28;8.73;;;2.70;;
64894;SDS011;51588;53.702;10.208;2023-07-13T11:35:59;8.17;;;2.40;;
64894;SDS011;51588;53.702;10.208;2023-07-13T11:38:31;5.73;;;2.50;;
64894;SDS011;51588;53.702;10.208;2023-07-13T11:40:58;7.63;;;2.40;;
64894;SDS011;51588;53.702;10.208;2023-07-13T11:43:28;5.43;;;2.30;;
64894;SDS011;51588;53.702;10.208;2023-07-13T11:45:54;7.83;;;2.50;;
64894;SDS011;51588;53.702;10.208;2023-07-13T11:48:23;10.90;;;2.70;;
64894;SDS011;51588;53.702;10.208;2023-07-13T11:50:51;4.93;;;2.37;;
64894;SDS011;51588;53.702;10.208;2023-07-13T11:53:17;4.50;;;2.10;;
64894;SDS011;51588;53.702;10.208;2023-07-13T11:55:44;6.00;;;2.43;;
64894;SDS011;51588;53.702;10.208;2023-07-13T11:58:11;7.53;;;2.03;;
64894;SDS011;51588;53.702;10.208;2023-07-13T12:00:38;3.80;;;2.00;;
64894;SDS011;51588;53.702;10.208;2023-07-13T12:03:06;8.07;;;2.03;;
64894;SDS011;51588;53.702;10.208;2023-07-13T12:05:34;7.13;;;2.03;;
64894;SDS011;51588;53.702;10.208;2023-07-13T12:08:08;3.60;;;1.90;;
64894;SDS011;51588;53.702;10.208;2023-07-13T12:10:36;3.10;;;1.97;;
64894;SDS011;51588;53.702;10.208;2023-07-13T12:13:03;6.30;;;2.30;;
64894;SDS011;51588;53.702;10.208;2023-07-13T12:15:30;5.77;;;1.70;;
64894;SDS011;51588;53.702;10.208;2023-07-13T12:17:59;6.90;;;2.10;;
64894;SDS011;51588;53.702;10.208;2023-07-13T12:20:27;3.17;;;2.07;;
64894;SDS011;51588;53.702;10.208;2023-07-13T12:22:56;6.77;;;2.00;;
64894;SDS011;51588;53.702;10.208;2023-07-13T12:25:22;4.20;;;2.10;;
64894;SDS011;51588;53.702;10.208;2023-07-13T12:27:49;6.23;;;1.90;;
64894;SDS011;51588;53.702;10.208;2023-07-13T12:30:26;4.03;;;2.10;;
64894;SDS011;51588;53.702;10.208;2023-07-13T12:32:57;28.27;;;2.93;;
64894;SDS011;51588;53.702;10.208;2023-07-13T12:35:24;4.17;;;1.80;;
64894;SDS011;51588;53.702;10.208;2023-07-13T12:37:51;6.00;;;2.10;;
64894;SDS011;51588;53.702;10.208;2023-07-13T12:40:20;2.40;;;1.60;;
64894;SDS011;51588;53.702;10.208;2023-07-13T12:42:47;5.70;;;1.97;;
64894;SDS011;51588;53.702;10.208;2023-07-13T12:45:17;5.63;;;2.13;;
64894;SDS011;51588;53.702;10.208;2023-07-13T12:47:47;4.97;;;1.70;;
64894;SDS011;51588;53.702;10.208;2023-07-13T12:50:15;4.13;;;1.90;;
64894;SDS011;51588;53.702;10.208;2023-07-13T12:52:42;5.73;;;1.80;;
64894;SDS011;51588;53.702;10.208;2023-07-13T12:55:11;4.13;;;2.37;;
64894;SDS011;51588;53.702;10.208;2023-07-13T12:57:43;2.40;;;1.60;;
64894;SDS011;51588;53.702;10.208;2023-07-13T13:02:57;4.07;;;1.80;;
64894;SDS011;51588;53.702;10.208;2023-07-13T13:05:25;3.50;;;1.50;;
64894;SDS011;51588;53.702;10.208;2023-07-13T13:07:52;2.80;;;1.80;;
64894;SDS011;51588;53.702;10.208;2023-07-13T13:10:19;3.07;;;1.47;;
64894;SDS011;51588;53.702;10.208;2023-07-13T13:12:47;2.60;;;1.50;;
64894;SDS011;51588;53.702;10.208;2023-07-13T13:15:14;4.83;;;1.80;;
64894;SDS011;51588;53.702;10.208;2023-07-13T13:17:41;3.37;;;1.73;;
64894;SDS011;51588;53.702;10.208;2023-07-13T13:20:13;2.63;;;1.90;;
64894;SDS011;51588;53.702;10.208;2023-07-13T13:22:40;4.83;;;1.50;;
64894;SDS011;51588;53.702;10.208;2023-07-13T13:25:07;6.00;;;1.87;;
64894;SDS011;51588;53.702;10.208;2023-07-13T13:27:34;2.80;;;1.67;;
64894;SDS011;51588;53.702;10.208;2023-07-13T13:30:02;2.67;;;1.50;;
64894;SDS011;51588;53.702;10.208;2023-07-13T13:32:28;3.83;;;1.50;;
64894;SDS011;51588;53.702;10.208;2023-07-13T13:34:55;2.00;;;1.67;;
64894;SDS011;51588;53.702;10.208;2023-07-13T13:37:22;3.53;;;1.40;;
64894;SDS011;51588;53.702;10.208;2023-07-13T13:39:50;2.20;;;1.50;;
64894;SDS011;51588;53.702;10.208;2023-07-13T13:42:18;2.33;;;1.57;;
64894;SDS011;51588;53.702;10.208;2023-07-13T13:44:46;2.53;;;1.70;;
64894;SDS011;51588;53.702;10.208;2023-07-13T13:47:20;4.47;;;1.77;;
64894;SDS011;51588;53.702;10.208;2023-07-13T13:49:47;2.47;;;1.70;;
64894;SDS011;51588;53.702;10.208;2023-07-13T13:52:14;5.20;;;1.90;;
64894;SDS011;51588;53.702;10.208;2023-07-13T13:54:40;4.20;;;1.87;;
64894;SDS011;51588;53.702;10.208;2023-07-13T13:57:08;2.53;;;1.60;;
64894;SDS011;51588;53.702;10.208;2023-07-13T13:59:34;6.23;;;2.40;;
64894;SDS011;51588;53.702;10.208;2023-07-13T14:02:07;5.53;;;1.83;;
64894;SDS011;51588;53.702;10.208;2023-07-13T14:04:42;4.23;;;1.90;;
64894;SDS011;51588;53.702;10.208;2023-07-13T14:07:10;6.83;;;2.00;;
64894;SDS011;51588;53.702;10.208;2023-07-13T14:09:36;4.10;;;1.70;;
64894;SDS011;51588;53.702;10.208;2023-07-13T14:12:03;5.20;;;1.90;;
64894;SDS011;51588;53.702;10.208;2023-07-13T14:14:30;5.77;;;1.77;;
64894;SDS011;51588;53.702;10.208;2023-07-13T14:16:57;8.03;;;2.00;;
64894;SDS011;51588;53.702;10.208;2023-07-13T14:19:24;5.40;;;1.90;;
64894;SDS011;51588;53.702;10.208;2023-07-13T14:21:53;5.10;;;2.03;;
64894;SDS011;51588;53.702;10.208;2023-07-13T14:24:19;3.93;;;1.87;;
64894;SDS011;51588;53.702;10.208;2023-07-13T14:26:46;5.87;;;2.17;;
64894;SDS011;51588;53.702;10.208;2023-07-13T14:29:13;6.33;;;2.00;;
64894;SDS011;51588;53.702;10.208;2023-07-13T14:31:41;4.33;;;2.00;;
64894;SDS011;51588;53.702;10.208;2023-07-13T14:34:08;4.53;;;2.20;;
64894;SDS011;51588;53.702;10.208;2023-07-13T14:36:36;3.30;;;2.40;;
64894;SDS011;51588;53.702;10.208;2023-07-13T14:39:10;9.43;;;2.53;;
64894;SDS011;51588;53.702;10.208;2023-07-13T14:41:37;9.33;;;2.40;;
64894;SDS011;51588;53.702;10.208;2023-07-13T14:44:07;3.63;;;2.33;;
64894;SDS011;51588;53.702;10.208;2023-07-13T14:46:34;3.70;;;1.80;;
64894;SDS011;51588;53.702;10.208;2023-07-13T14:49:01;4.33;;;1.90;;